sensor_id;sensor_type;location;lat;lon;timestamp;P1;durP1;ratioP1;P2;durP2;ratioP2
17618;SDS011;8928;51.678;6.074;2023-05-10T00:01:27;79.20;;;28.13;;
17618;SDS011;8928;51.678;6.074;2023-05-10T00:04:14;94.83;;;29.23;;
17618;SDS011;8928;51.678;6.074;2023-05-10T00:07:01;89.80;;;29.80;;
17618;SDS011;8928;51.678;6.074;2023-05-10T00:09:48;90.00;;;29.73;;
17618;SDS011;8928;51.678;6.074;2023-05-10T00:12:37;92.97;;;30.00;;
17618;SDS011;8928;51.678;6.074;2023-05-10T00:15:24;99.67;;;32.33;;
17618;SDS011;8928;51.678;6.074;2023-05-10T00:18:11;92.93;;;31.23;;
17618;SDS011;8928;51.678;6.074;2023-05-10T00:20:58;118.17;;;32.80;;
17618;SDS011;8928;51.678;6.074;2023-05-10T00:23:45;100.77;;;33.03;;
17618;SDS011;8928;51.678;6.074;2023-05-10T00:26:32;101.57;;;31.93;;
17618;SDS011;8928;51.678;6.074;2023-05-10T00:29:20;95.23;;;31.67;;
17618;SDS011;8928;51.678;6.074;2023-05-10T00:32:07;93.90;;;30.60;;
17618;SDS011;8928;51.678;6.074;2023-05-10T00:34:54;102.77;;;30.63;;
17618;SDS011;8928;51.678;6.074;2023-05-10T00:37:41;94.63;;;30.37;;
17618;SDS011;8928;51.678;6.074;2023-05-10T00:40:28;111.23;;;32.00;;
17618;SDS011;8928;51.678;6.074;2023-05-10T00:43:16;105.47;;;30.53;;
17618;SDS011;8928;51.678;6.074;2023-05-10T00:46:04;96.27;;;29.33;;
17618;SDS011;8928;51.678;6.074;2023-05-10T00:48:52;95.60;;;28.43;;
17618;SDS011;8928;51.678;6.074;2023-05-10T00:51:39;87.07;;;29.53;;
17618;SDS011;8928;51.678;6.074;2023-05-10T00:54:28;104.07;;;31.27;;
17618;SDS011;8928;51.678;6.074;2023-05-10T00:57:15;94.97;;;30.03;;
17618;SDS011;8928;51.678;6.074;2023-05-10T01:00:02;102.20;;;29.30;;
17618;SDS011;8928;51.678;6.074;2023-05-10T01:02:52;100.33;;;28.03;;
17618;SDS011;8928;51.678;6.074;2023-05-10T01:05:39;87.10;;;28.37;;
17618;SDS011;8928;51.678;6.074;2023-05-10T01:08:26;88.73;;;28.47;;
17618;SDS011;8928;51.678;6.074;2023-05-10T01:11:14;92.70;;;29.00;;
17618;SDS011;8928;51.678;6.074;2023-05-10T01:14:01;84.23;;;27.03;;
17618;SDS011;8928;51.678;6.074;2023-05-10T01:16:49;82.33;;;26.53;;
17618;SDS011;8928;51.678;6.074;2023-05-10T01:19:38;82.33;;;26.33;;
17618;SDS011;8928;51.678;6.074;2023-05-10T01:22:31;73.20;;;25.87;;
17618;SDS011;8928;51.678;6.074;2023-05-10T01:25:44;77.03;;;25.60;;
17618;SDS011;8928;51.678;6.074;2023-05-10T01:29:14;72.87;;;24.80;;
17618;SDS011;8928;51.678;6.074;2023-05-10T01:32:21;77.20;;;25.23;;
17618;SDS011;8928;51.678;6.074;2023-05-10T01:35:15;78.73;;;26.50;;
17618;SDS011;8928;51.678;6.074;2023-05-10T01:38:07;86.03;;;27.20;;
17618;SDS011;8928;51.678;6.074;2023-05-10T01:41:05;78.07;;;25.60;;
17618;SDS011;8928;51.678;6.074;2023-05-10T01:44:01;81.70;;;25.30;;
17618;SDS011;8928;51.678;6.074;2023-05-10T01:46:53;82.80;;;27.93;;
17618;SDS011;8928;51.678;6.074;2023-05-10T01:49:49;89.80;;;29.17;;
17618;SDS011;8928;51.678;6.074;2023-05-10T01:52:41;96.93;;;28.43;;
17618;SDS011;8928;51.678;6.074;2023-05-10T01:55:32;82.90;;;28.43;;
17618;SDS011;8928;51.678;6.074;2023-05-10T01:58:22;85.27;;;28.97;;
17618;SDS011;8928;51.678;6.074;2023-05-10T02:01:13;84.67;;;27.70;;
17618;SDS011;8928;51.678;6.074;2023-05-10T02:04:01;78.87;;;28.27;;
17618;SDS011;8928;51.678;6.074;2023-05-10T02:06:50;86.20;;;28.10;;
17618;SDS011;8928;51.678;6.074;2023-05-10T02:09:39;84.77;;;28.43;;
17618;SDS011;8928;51.678;6.074;2023-05-10T02:12:33;84.67;;;28.03;;
17618;SDS011;8928;51.678;6.074;2023-05-10T02:15:22;86.80;;;28.80;;
17618;SDS011;8928;51.678;6.074;2023-05-10T02:18:11;86.80;;;29.47;;
17618;SDS011;8928;51.678;6.074;2023-05-10T02:20:59;85.83;;;28.83;;
17618;SDS011;8928;51.678;6.074;2023-05-10T02:23:49;92.33;;;30.77;;
17618;SDS011;8928;51.678;6.074;2023-05-10T02:26:38;91.50;;;30.53;;
17618;SDS011;8928;51.678;6.074;2023-05-10T02:29:26;89.73;;;30.33;;
17618;SDS011;8928;51.678;6.074;2023-05-10T02:32:14;89.87;;;30.80;;
17618;SDS011;8928;51.678;6.074;2023-05-10T02:35:03;89.50;;;31.47;;
17618;SDS011;8928;51.678;6.074;2023-05-10T02:37:51;103.37;;;32.37;;
17618;SDS011;8928;51.678;6.074;2023-05-10T02:40:41;89.80;;;32.30;;
17618;SDS011;8928;51.678;6.074;2023-05-10T02:43:29;94.87;;;32.30;;
17618;SDS011;8928;51.678;6.074;2023-05-10T02:46:18;93.77;;;32.23;;
17618;SDS011;8928;51.678;6.074;2023-05-10T02:49:05;105.53;;;32.47;;
17618;SDS011;8928;51.678;6.074;2023-05-10T02:51:55;99.80;;;32.63;;
17618;SDS011;8928;51.678;6.074;2023-05-10T02:54:50;106.90;;;31.67;;
17618;SDS011;8928;51.678;6.074;2023-05-10T02:57:43;109.53;;;33.97;;
17618;SDS011;8928;51.678;6.074;2023-05-10T03:00:35;105.57;;;33.13;;
17618;SDS011;8928;51.678;6.074;2023-05-10T03:03:22;108.63;;;33.37;;
17618;SDS011;8928;51.678;6.074;2023-05-10T03:06:09;118.13;;;36.27;;
17618;SDS011;8928;51.678;6.074;2023-05-10T03:08:56;116.90;;;36.97;;
17618;SDS011;8928;51.678;6.074;2023-05-10T03:11:47;126.30;;;37.77;;
17618;SDS011;8928;51.678;6.074;2023-05-10T03:14:48;124.70;;;36.90;;
17618;SDS011;8928;51.678;6.074;2023-05-10T03:17:45;153.97;;;40.43;;
17618;SDS011;8928;51.678;6.074;2023-05-10T03:20:35;149.10;;;40.63;;
17618;SDS011;8928;51.678;6.074;2023-05-10T03:23:26;142.77;;;40.60;;
17618;SDS011;8928;51.678;6.074;2023-05-10T03:26:17;144.60;;;39.67;;
17618;SDS011;8928;51.678;6.074;2023-05-10T03:29:11;146.07;;;41.03;;
17618;SDS011;8928;51.678;6.074;2023-05-10T03:32:00;155.57;;;41.93;;
17618;SDS011;8928;51.678;6.074;2023-05-10T03:34:48;152.30;;;40.37;;
17618;SDS011;8928;51.678;6.074;2023-05-10T03:37:35;139.07;;;39.80;;
17618;SDS011;8928;51.678;6.074;2023-05-10T03:40:22;156.87;;;41.50;;
17618;SDS011;8928;51.678;6.074;2023-05-10T03:43:09;145.13;;;39.97;;
17618;SDS011;8928;51.678;6.074;2023-05-10T03:45:56;143.50;;;39.77;;
17618;SDS011;8928;51.678;6.074;2023-05-10T03:48:45;136.20;;;38.77;;
17618;SDS011;8928;51.678;6.074;2023-05-10T03:51:32;130.97;;;39.70;;
17618;SDS011;8928;51.678;6.074;2023-05-10T03:54:19;140.43;;;39.83;;
17618;SDS011;8928;51.678;6.074;2023-05-10T03:57:06;138.07;;;39.77;;
17618;SDS011;8928;51.678;6.074;2023-05-10T03:59:53;147.33;;;40.47;;
17618;SDS011;8928;51.678;6.074;2023-05-10T04:02:40;138.87;;;41.47;;
17618;SDS011;8928;51.678;6.074;2023-05-10T04:05:29;135.73;;;39.23;;
17618;SDS011;8928;51.678;6.074;2023-05-10T04:08:17;140.00;;;40.73;;
17618;SDS011;8928;51.678;6.074;2023-05-10T04:11:04;141.67;;;41.43;;
17618;SDS011;8928;51.678;6.074;2023-05-10T04:13:52;128.63;;;38.70;;
17618;SDS011;8928;51.678;6.074;2023-05-10T04:16:40;143.20;;;41.13;;
17618;SDS011;8928;51.678;6.074;2023-05-10T04:19:28;150.10;;;42.30;;
17618;SDS011;8928;51.678;6.074;2023-05-10T04:22:17;142.13;;;40.97;;
17618;SDS011;8928;51.678;6.074;2023-05-10T04:25:04;134.53;;;40.67;;
17618;SDS011;8928;51.678;6.074;2023-05-10T04:27:52;145.43;;;42.47;;
17618;SDS011;8928;51.678;6.074;2023-05-10T04:30:39;148.33;;;41.07;;
17618;SDS011;8928;51.678;6.074;2023-05-10T04:33:26;130.90;;;39.57;;
17618;SDS011;8928;51.678;6.074;2023-05-10T04:36:14;135.27;;;40.17;;
17618;SDS011;8928;51.678;6.074;2023-05-10T04:39:02;141.73;;;39.53;;
17618;SDS011;8928;51.678;6.074;2023-05-10T04:41:49;136.73;;;39.63;;
17618;SDS011;8928;51.678;6.074;2023-05-10T04:44:36;142.10;;;40.60;;
17618;SDS011;8928;51.678;6.074;2023-05-10T04:47:24;141.40;;;42.23;;
17618;SDS011;8928;51.678;6.074;2023-05-10T04:50:11;145.10;;;40.03;;
17618;SDS011;8928;51.678;6.074;2023-05-10T04:52:58;138.17;;;40.33;;
17618;SDS011;8928;51.678;6.074;2023-05-10T04:55:46;137.10;;;41.40;;
17618;SDS011;8928;51.678;6.074;2023-05-10T04:58:34;152.43;;;41.57;;
17618;SDS011;8928;51.678;6.074;2023-05-10T05:01:21;155.30;;;42.70;;
17618;SDS011;8928;51.678;6.074;2023-05-10T05:04:08;157.67;;;44.40;;
17618;SDS011;8928;51.678;6.074;2023-05-10T05:06:55;142.57;;;42.67;;
17618;SDS011;8928;51.678;6.074;2023-05-10T05:09:42;141.97;;;41.93;;
17618;SDS011;8928;51.678;6.074;2023-05-10T05:12:30;152.70;;;43.90;;
17618;SDS011;8928;51.678;6.074;2023-05-10T05:15:18;166.07;;;44.67;;
17618;SDS011;8928;51.678;6.074;2023-05-10T05:18:05;151.77;;;43.73;;
17618;SDS011;8928;51.678;6.074;2023-05-10T05:20:52;170.70;;;46.83;;
17618;SDS011;8928;51.678;6.074;2023-05-10T05:23:39;159.50;;;45.43;;
17618;SDS011;8928;51.678;6.074;2023-05-10T05:26:26;176.10;;;45.57;;
17618;SDS011;8928;51.678;6.074;2023-05-10T05:29:14;171.43;;;46.10;;
17618;SDS011;8928;51.678;6.074;2023-05-10T05:32:01;155.67;;;44.43;;
17618;SDS011;8928;51.678;6.074;2023-05-10T05:34:48;157.07;;;44.17;;
17618;SDS011;8928;51.678;6.074;2023-05-10T05:37:36;149.87;;;43.47;;
17618;SDS011;8928;51.678;6.074;2023-05-10T05:40:23;156.50;;;44.87;;
17618;SDS011;8928;51.678;6.074;2023-05-10T05:43:10;150.07;;;43.97;;
17618;SDS011;8928;51.678;6.074;2023-05-10T05:45:58;147.43;;;42.87;;
17618;SDS011;8928;51.678;6.074;2023-05-10T05:48:45;148.07;;;43.23;;
17618;SDS011;8928;51.678;6.074;2023-05-10T05:51:32;152.80;;;43.40;;
17618;SDS011;8928;51.678;6.074;2023-05-10T05:54:20;139.13;;;40.83;;
17618;SDS011;8928;51.678;6.074;2023-05-10T05:57:07;146.90;;;42.73;;
17618;SDS011;8928;51.678;6.074;2023-05-10T05:59:55;146.47;;;43.37;;
17618;SDS011;8928;51.678;6.074;2023-05-10T06:02:43;129.23;;;40.43;;
17618;SDS011;8928;51.678;6.074;2023-05-10T06:05:30;137.73;;;41.47;;
17618;SDS011;8928;51.678;6.074;2023-05-10T06:08:17;122.33;;;37.13;;
17618;SDS011;8928;51.678;6.074;2023-05-10T06:11:05;110.00;;;36.23;;
17618;SDS011;8928;51.678;6.074;2023-05-10T06:13:52;116.30;;;36.27;;
17618;SDS011;8928;51.678;6.074;2023-05-10T06:16:39;103.83;;;33.93;;
17618;SDS011;8928;51.678;6.074;2023-05-10T06:19:28;107.40;;;34.50;;
17618;SDS011;8928;51.678;6.074;2023-05-10T06:22:15;107.77;;;34.73;;
17618;SDS011;8928;51.678;6.074;2023-05-10T06:25:02;112.50;;;35.60;;
17618;SDS011;8928;51.678;6.074;2023-05-10T06:27:49;108.53;;;34.70;;
17618;SDS011;8928;51.678;6.074;2023-05-10T06:30:40;118.70;;;34.10;;
17618;SDS011;8928;51.678;6.074;2023-05-10T06:33:27;105.63;;;34.20;;
17618;SDS011;8928;51.678;6.074;2023-05-10T06:36:16;106.27;;;35.27;;
17618;SDS011;8928;51.678;6.074;2023-05-10T06:39:03;102.43;;;33.80;;
17618;SDS011;8928;51.678;6.074;2023-05-10T06:41:50;106.95;;;39.10;;
17618;SDS011;8928;51.678;6.074;2023-05-10T06:44:38;107.97;;;34.37;;
17618;SDS011;8928;51.678;6.074;2023-05-10T06:47:25;112.93;;;34.03;;
17618;SDS011;8928;51.678;6.074;2023-05-10T06:50:12;98.60;;;33.43;;
17618;SDS011;8928;51.678;6.074;2023-05-10T06:53:00;105.80;;;34.00;;
17618;SDS011;8928;51.678;6.074;2023-05-10T06:55:48;101.57;;;34.70;;
17618;SDS011;8928;51.678;6.074;2023-05-10T06:58:36;97.87;;;33.70;;
17618;SDS011;8928;51.678;6.074;2023-05-10T07:01:23;91.87;;;32.43;;
17618;SDS011;8928;51.678;6.074;2023-05-10T07:04:10;88.60;;;32.53;;
17618;SDS011;8928;51.678;6.074;2023-05-10T07:06:58;85.33;;;31.23;;
17618;SDS011;8928;51.678;6.074;2023-05-10T07:09:46;84.60;;;31.23;;
17618;SDS011;8928;51.678;6.074;2023-05-10T07:12:34;73.73;;;30.07;;
17618;SDS011;8928;51.678;6.074;2023-05-10T07:15:22;65.50;;;28.97;;
17618;SDS011;8928;51.678;6.074;2023-05-10T07:18:09;65.40;;;28.37;;
17618;SDS011;8928;51.678;6.074;2023-05-10T07:20:56;62.70;;;28.00;;
17618;SDS011;8928;51.678;6.074;2023-05-10T07:23:43;57.93;;;27.17;;
17618;SDS011;8928;51.678;6.074;2023-05-10T07:26:32;58.77;;;27.13;;
17618;SDS011;8928;51.678;6.074;2023-05-10T07:29:19;64.03;;;27.60;;
17618;SDS011;8928;51.678;6.074;2023-05-10T07:32:06;55.47;;;26.53;;
17618;SDS011;8928;51.678;6.074;2023-05-10T07:34:53;59.97;;;26.87;;
17618;SDS011;8928;51.678;6.074;2023-05-10T07:37:40;51.70;;;24.73;;
17618;SDS011;8928;51.678;6.074;2023-05-10T07:40:27;47.80;;;23.93;;
17618;SDS011;8928;51.678;6.074;2023-05-10T07:43:16;49.00;;;23.83;;
17618;SDS011;8928;51.678;6.074;2023-05-10T07:46:03;53.97;;;24.23;;
17618;SDS011;8928;51.678;6.074;2023-05-10T07:48:50;52.17;;;24.17;;
17618;SDS011;8928;51.678;6.074;2023-05-10T07:51:37;50.43;;;23.10;;
17618;SDS011;8928;51.678;6.074;2023-05-10T07:54:24;53.40;;;23.83;;
17618;SDS011;8928;51.678;6.074;2023-05-10T07:57:11;56.47;;;24.17;;
17618;SDS011;8928;51.678;6.074;2023-05-10T08:00:01;53.27;;;23.80;;
17618;SDS011;8928;51.678;6.074;2023-05-10T08:02:48;52.90;;;23.90;;
17618;SDS011;8928;51.678;6.074;2023-05-10T08:05:35;53.17;;;24.43;;
17618;SDS011;8928;51.678;6.074;2023-05-10T08:08:22;55.10;;;24.37;;
17618;SDS011;8928;51.678;6.074;2023-05-10T08:11:10;51.20;;;24.90;;
17618;SDS011;8928;51.678;6.074;2023-05-10T08:13:57;55.37;;;24.73;;
17618;SDS011;8928;51.678;6.074;2023-05-10T08:16:45;56.87;;;24.80;;
17618;SDS011;8928;51.678;6.074;2023-05-10T08:19:32;61.80;;;25.53;;
17618;SDS011;8928;51.678;6.074;2023-05-10T08:22:20;55.57;;;25.47;;
17618;SDS011;8928;51.678;6.074;2023-05-10T08:25:07;52.07;;;24.53;;
17618;SDS011;8928;51.678;6.074;2023-05-10T08:27:54;56.07;;;25.20;;
17618;SDS011;8928;51.678;6.074;2023-05-10T08:30:41;52.50;;;24.63;;
17618;SDS011;8928;51.678;6.074;2023-05-10T08:33:30;49.77;;;24.97;;
17618;SDS011;8928;51.678;6.074;2023-05-10T08:36:17;48.20;;;24.60;;
17618;SDS011;8928;51.678;6.074;2023-05-10T08:39:06;55.53;;;24.20;;
17618;SDS011;8928;51.678;6.074;2023-05-10T08:41:54;53.63;;;24.67;;
17618;SDS011;8928;51.678;6.074;2023-05-10T08:44:48;51.03;;;24.23;;
17618;SDS011;8928;51.678;6.074;2023-05-10T08:47:35;53.17;;;24.70;;
17618;SDS011;8928;51.678;6.074;2023-05-10T08:50:24;55.60;;;25.23;;
17618;SDS011;8928;51.678;6.074;2023-05-10T08:53:12;60.80;;;25.53;;
17618;SDS011;8928;51.678;6.074;2023-05-10T08:56:01;58.60;;;25.83;;
17618;SDS011;8928;51.678;6.074;2023-05-10T08:58:49;61.13;;;26.50;;
17618;SDS011;8928;51.678;6.074;2023-05-10T09:01:37;64.10;;;26.37;;
17618;SDS011;8928;51.678;6.074;2023-05-10T09:04:25;62.73;;;27.00;;
17618;SDS011;8928;51.678;6.074;2023-05-10T09:07:13;63.07;;;27.73;;
17618;SDS011;8928;51.678;6.074;2023-05-10T09:10:01;63.00;;;27.50;;
17618;SDS011;8928;51.678;6.074;2023-05-10T09:12:48;60.57;;;27.63;;
17618;SDS011;8928;51.678;6.074;2023-05-10T09:15:36;65.93;;;28.10;;
17618;SDS011;8928;51.678;6.074;2023-05-10T09:18:23;63.73;;;28.97;;
17618;SDS011;8928;51.678;6.074;2023-05-10T09:21:10;63.43;;;29.20;;
17618;SDS011;8928;51.678;6.074;2023-05-10T09:23:58;60.73;;;28.80;;
17618;SDS011;8928;51.678;6.074;2023-05-10T09:26:49;59.53;;;27.67;;
17618;SDS011;8928;51.678;6.074;2023-05-10T09:29:39;55.90;;;25.93;;
17618;SDS011;8928;51.678;6.074;2023-05-10T09:32:35;52.63;;;25.27;;
17618;SDS011;8928;51.678;6.074;2023-05-10T09:35:24;48.00;;;23.73;;
17618;SDS011;8928;51.678;6.074;2023-05-10T09:38:13;46.13;;;22.77;;
17618;SDS011;8928;51.678;6.074;2023-05-10T09:41:01;46.40;;;23.67;;
17618;SDS011;8928;51.678;6.074;2023-05-10T09:43:49;39.80;;;22.40;;
17618;SDS011;8928;51.678;6.074;2023-05-10T09:46:41;42.33;;;22.90;;
17618;SDS011;8928;51.678;6.074;2023-05-10T09:49:28;45.87;;;22.97;;
17618;SDS011;8928;51.678;6.074;2023-05-10T09:52:16;43.30;;;23.10;;
17618;SDS011;8928;51.678;6.074;2023-05-10T09:55:03;41.53;;;22.57;;
17618;SDS011;8928;51.678;6.074;2023-05-10T09:57:59;40.50;;;22.13;;
17618;SDS011;8928;51.678;6.074;2023-05-10T10:00:47;38.40;;;21.97;;
17618;SDS011;8928;51.678;6.074;2023-05-10T10:03:40;39.90;;;22.53;;
17618;SDS011;8928;51.678;6.074;2023-05-10T10:06:28;41.07;;;22.80;;
17618;SDS011;8928;51.678;6.074;2023-05-10T10:09:15;43.70;;;23.03;;
17618;SDS011;8928;51.678;6.074;2023-05-10T10:12:04;39.70;;;23.10;;
17618;SDS011;8928;51.678;6.074;2023-05-10T10:14:52;41.10;;;23.20;;
17618;SDS011;8928;51.678;6.074;2023-05-10T10:17:40;41.83;;;23.33;;
17618;SDS011;8928;51.678;6.074;2023-05-10T10:20:29;39.90;;;23.30;;
17618;SDS011;8928;51.678;6.074;2023-05-10T10:23:16;39.90;;;22.53;;
17618;SDS011;8928;51.678;6.074;2023-05-10T10:26:03;40.40;;;22.77;;
17618;SDS011;8928;51.678;6.074;2023-05-10T10:28:51;37.97;;;22.90;;
17618;SDS011;8928;51.678;6.074;2023-05-10T10:31:55;38.17;;;21.30;;
17618;SDS011;8928;51.678;6.074;2023-05-10T10:34:48;36.10;;;21.60;;
17618;SDS011;8928;51.678;6.074;2023-05-10T10:37:45;35.78;;;21.10;;
17618;SDS011;8928;51.678;6.074;2023-05-10T10:40:34;37.23;;;20.77;;
17618;SDS011;8928;51.678;6.074;2023-05-10T10:43:21;39.50;;;21.60;;
17618;SDS011;8928;51.678;6.074;2023-05-10T10:46:11;31.93;;;20.73;;
17618;SDS011;8928;51.678;6.074;2023-05-10T10:49:09;35.70;;;21.07;;
17618;SDS011;8928;51.678;6.074;2023-05-10T10:52:17;37.23;;;20.43;;
17618;SDS011;8928;51.678;6.074;2023-05-10T10:55:09;38.60;;;21.40;;
17618;SDS011;8928;51.678;6.074;2023-05-10T10:57:57;29.37;;;17.33;;
17618;SDS011;8928;51.678;6.074;2023-05-10T11:00:47;29.33;;;16.33;;
17618;SDS011;8928;51.678;6.074;2023-05-10T11:03:34;27.27;;;15.80;;
17618;SDS011;8928;51.678;6.074;2023-05-10T11:06:29;29.73;;;16.10;;
17618;SDS011;8928;51.678;6.074;2023-05-10T11:09:17;33.37;;;18.73;;
17618;SDS011;8928;51.678;6.074;2023-05-10T11:12:08;36.63;;;19.00;;
17618;SDS011;8928;51.678;6.074;2023-05-10T11:14:56;27.50;;;16.40;;
17618;SDS011;8928;51.678;6.074;2023-05-10T11:17:44;28.53;;;16.27;;
17618;SDS011;8928;51.678;6.074;2023-05-10T11:20:38;29.53;;;16.63;;
17618;SDS011;8928;51.678;6.074;2023-05-10T11:23:31;30.20;;;16.53;;
17618;SDS011;8928;51.678;6.074;2023-05-10T11:26:19;29.57;;;16.83;;
17618;SDS011;8928;51.678;6.074;2023-05-10T11:29:08;26.80;;;16.53;;
17618;SDS011;8928;51.678;6.074;2023-05-10T11:31:56;28.60;;;16.17;;
17618;SDS011;8928;51.678;6.074;2023-05-10T11:34:46;26.97;;;16.47;;
17618;SDS011;8928;51.678;6.074;2023-05-10T11:37:34;24.87;;;15.87;;
17618;SDS011;8928;51.678;6.074;2023-05-10T11:40:22;29.37;;;17.40;;
17618;SDS011;8928;51.678;6.074;2023-05-10T11:43:10;29.37;;;17.43;;
17618;SDS011;8928;51.678;6.074;2023-05-10T11:45:57;32.30;;;17.27;;
17618;SDS011;8928;51.678;6.074;2023-05-10T11:48:45;28.50;;;16.80;;
17618;SDS011;8928;51.678;6.074;2023-05-10T11:51:34;31.40;;;17.97;;
17618;SDS011;8928;51.678;6.074;2023-05-10T11:54:22;32.83;;;18.73;;
17618;SDS011;8928;51.678;6.074;2023-05-10T11:57:10;33.63;;;17.53;;
17618;SDS011;8928;51.678;6.074;2023-05-10T11:59:57;26.77;;;17.40;;
17618;SDS011;8928;51.678;6.074;2023-05-10T12:02:44;25.03;;;15.97;;
17618;SDS011;8928;51.678;6.074;2023-05-10T12:05:32;30.27;;;17.47;;
17618;SDS011;8928;51.678;6.074;2023-05-10T12:08:20;29.33;;;17.33;;
17618;SDS011;8928;51.678;6.074;2023-05-10T12:11:09;30.40;;;18.03;;
17618;SDS011;8928;51.678;6.074;2023-05-10T12:13:57;32.67;;;18.50;;
17618;SDS011;8928;51.678;6.074;2023-05-10T12:16:44;27.33;;;17.33;;
17618;SDS011;8928;51.678;6.074;2023-05-10T12:19:36;29.57;;;17.50;;
17618;SDS011;8928;51.678;6.074;2023-05-10T12:22:23;23.33;;;16.00;;
17618;SDS011;8928;51.678;6.074;2023-05-10T12:25:11;22.10;;;14.07;;
17618;SDS011;8928;51.678;6.074;2023-05-10T12:27:58;23.23;;;13.80;;
17618;SDS011;8928;51.678;6.074;2023-05-10T12:30:48;18.45;;;12.00;;
17618;SDS011;8928;51.678;6.074;2023-05-10T12:33:35;22.80;;;12.70;;
17618;SDS011;8928;51.678;6.074;2023-05-10T12:36:24;22.30;;;12.63;;
17618;SDS011;8928;51.678;6.074;2023-05-10T12:39:11;22.33;;;12.55;;
17618;SDS011;8928;51.678;6.074;2023-05-10T12:41:58;20.20;;;12.43;;
17618;SDS011;8928;51.678;6.074;2023-05-10T12:44:45;21.13;;;12.40;;
17618;SDS011;8928;51.678;6.074;2023-05-10T12:47:34;17.98;;;11.98;;
17618;SDS011;8928;51.678;6.074;2023-05-10T12:50:21;17.70;;;12.13;;
17618;SDS011;8928;51.678;6.074;2023-05-10T12:53:09;18.70;;;11.07;;
17618;SDS011;8928;51.678;6.074;2023-05-10T12:55:56;18.13;;;11.30;;
17618;SDS011;8928;51.678;6.074;2023-05-10T12:58:44;22.15;;;11.63;;
17618;SDS011;8928;51.678;6.074;2023-05-10T13:01:33;17.60;;;11.43;;
17618;SDS011;8928;51.678;6.074;2023-05-10T13:04:21;17.83;;;11.48;;
17618;SDS011;8928;51.678;6.074;2023-05-10T13:07:08;16.83;;;10.38;;
17618;SDS011;8928;51.678;6.074;2023-05-10T13:09:56;17.45;;;11.32;;
17618;SDS011;8928;51.678;6.074;2023-05-10T13:12:43;17.98;;;11.95;;
17618;SDS011;8928;51.678;6.074;2023-05-10T13:15:30;21.60;;;11.70;;
17618;SDS011;8928;51.678;6.074;2023-05-10T13:18:17;19.13;;;11.55;;
17618;SDS011;8928;51.678;6.074;2023-05-10T13:21:05;19.80;;;11.15;;
17618;SDS011;8928;51.678;6.074;2023-05-10T13:23:53;14.53;;;10.07;;
17618;SDS011;8928;51.678;6.074;2023-05-10T13:26:40;15.97;;;9.60;;
17618;SDS011;8928;51.678;6.074;2023-05-10T13:29:27;16.50;;;10.37;;
17618;SDS011;8928;51.678;6.074;2023-05-10T13:32:14;21.23;;;11.50;;
17618;SDS011;8928;51.678;6.074;2023-05-10T13:35:01;18.43;;;11.60;;
17618;SDS011;8928;51.678;6.074;2023-05-10T13:37:51;20.53;;;12.60;;
17618;SDS011;8928;51.678;6.074;2023-05-10T13:40:38;21.47;;;13.03;;
17618;SDS011;8928;51.678;6.074;2023-05-10T13:43:25;21.60;;;13.43;;
17618;SDS011;8928;51.678;6.074;2023-05-10T13:46:12;20.87;;;13.90;;
17618;SDS011;8928;51.678;6.074;2023-05-10T13:48:59;22.33;;;14.10;;
17618;SDS011;8928;51.678;6.074;2023-05-10T13:51:47;21.23;;;13.77;;
17618;SDS011;8928;51.678;6.074;2023-05-10T13:54:35;23.40;;;14.50;;
17618;SDS011;8928;51.678;6.074;2023-05-10T13:57:23;22.43;;;14.60;;
17618;SDS011;8928;51.678;6.074;2023-05-10T14:00:10;22.87;;;15.10;;
17618;SDS011;8928;51.678;6.074;2023-05-10T14:02:58;28.03;;;16.00;;
17618;SDS011;8928;51.678;6.074;2023-05-10T14:05:45;25.07;;;16.90;;
17618;SDS011;8928;51.678;6.074;2023-05-10T14:08:32;29.00;;;18.07;;
17618;SDS011;8928;51.678;6.074;2023-05-10T14:11:21;27.37;;;17.90;;
17618;SDS011;8928;51.678;6.074;2023-05-10T14:14:08;29.50;;;18.67;;
17618;SDS011;8928;51.678;6.074;2023-05-10T14:16:55;32.23;;;18.33;;
17618;SDS011;8928;51.678;6.074;2023-05-10T14:19:42;28.80;;;17.67;;
17618;SDS011;8928;51.678;6.074;2023-05-10T14:22:30;30.83;;;18.53;;
17618;SDS011;8928;51.678;6.074;2023-05-10T14:25:17;30.43;;;18.87;;
17618;SDS011;8928;51.678;6.074;2023-05-10T14:28:05;31.53;;;18.93;;
17618;SDS011;8928;51.678;6.074;2023-05-10T14:30:52;31.47;;;19.23;;
17618;SDS011;8928;51.678;6.074;2023-05-10T14:33:39;29.70;;;18.93;;
17618;SDS011;8928;51.678;6.074;2023-05-10T14:36:27;28.07;;;18.50;;
17618;SDS011;8928;51.678;6.074;2023-05-10T14:39:14;30.60;;;17.77;;
17618;SDS011;8928;51.678;6.074;2023-05-10T14:42:01;30.37;;;18.30;;
17618;SDS011;8928;51.678;6.074;2023-05-10T14:44:50;30.10;;;17.73;;
17618;SDS011;8928;51.678;6.074;2023-05-10T14:47:37;27.80;;;17.03;;
17618;SDS011;8928;51.678;6.074;2023-05-10T14:50:24;26.10;;;16.20;;
17618;SDS011;8928;51.678;6.074;2023-05-10T14:53:12;26.13;;;15.27;;
17618;SDS011;8928;51.678;6.074;2023-05-10T14:55:59;23.50;;;14.80;;
17618;SDS011;8928;51.678;6.074;2023-05-10T14:58:46;20.60;;;14.43;;
17618;SDS011;8928;51.678;6.074;2023-05-10T15:01:35;25.30;;;15.43;;
17618;SDS011;8928;51.678;6.074;2023-05-10T15:04:22;20.30;;;13.98;;
17618;SDS011;8928;51.678;6.074;2023-05-10T15:07:10;19.67;;;13.55;;
17618;SDS011;8928;51.678;6.074;2023-05-10T15:09:59;17.45;;;12.80;;
17618;SDS011;8928;51.678;6.074;2023-05-10T15:12:46;17.23;;;12.55;;
17618;SDS011;8928;51.678;6.074;2023-05-10T15:15:33;18.85;;;12.13;;
17618;SDS011;8928;51.678;6.074;2023-05-10T15:18:22;16.08;;;11.07;;
17618;SDS011;8928;51.678;6.074;2023-05-10T15:21:09;14.52;;;10.75;;
17618;SDS011;8928;51.678;6.074;2023-05-10T15:23:56;16.20;;;10.85;;
17618;SDS011;8928;51.678;6.074;2023-05-10T15:26:44;13.25;;;9.90;;
17618;SDS011;8928;51.678;6.074;2023-05-10T15:29:32;14.25;;;9.02;;
17618;SDS011;8928;51.678;6.074;2023-05-10T15:32:19;10.05;;;7.70;;
17618;SDS011;8928;51.678;6.074;2023-05-10T15:35:08;11.70;;;7.70;;
17618;SDS011;8928;51.678;6.074;2023-05-10T15:37:55;10.43;;;7.90;;
17618;SDS011;8928;51.678;6.074;2023-05-10T15:40:43;9.77;;;7.95;;
17618;SDS011;8928;51.678;6.074;2023-05-10T15:43:30;11.60;;;8.65;;
17618;SDS011;8928;51.678;6.074;2023-05-10T15:46:17;11.90;;;8.50;;
17618;SDS011;8928;51.678;6.074;2023-05-10T15:49:04;12.68;;;8.65;;
17618;SDS011;8928;51.678;6.074;2023-05-10T15:51:53;13.43;;;9.02;;
17618;SDS011;8928;51.678;6.074;2023-05-10T15:54:40;11.02;;;8.70;;
17618;SDS011;8928;51.678;6.074;2023-05-10T15:57:27;12.52;;;9.50;;
17618;SDS011;8928;51.678;6.074;2023-05-10T16:00:14;14.38;;;9.07;;
17618;SDS011;8928;51.678;6.074;2023-05-10T16:03:02;12.80;;;9.90;;
17618;SDS011;8928;51.678;6.074;2023-05-10T16:05:49;14.38;;;10.23;;
17618;SDS011;8928;51.678;6.074;2023-05-10T16:08:37;13.18;;;10.43;;
17618;SDS011;8928;51.678;6.074;2023-05-10T16:11:24;12.07;;;9.93;;
17618;SDS011;8928;51.678;6.074;2023-05-10T16:14:11;12.05;;;9.73;;
17618;SDS011;8928;51.678;6.074;2023-05-10T16:16:58;11.48;;;9.50;;
17618;SDS011;8928;51.678;6.074;2023-05-10T16:19:46;14.82;;;10.25;;
17618;SDS011;8928;51.678;6.074;2023-05-10T16:22:33;14.32;;;10.25;;
17618;SDS011;8928;51.678;6.074;2023-05-10T16:25:22;14.98;;;9.90;;
17618;SDS011;8928;51.678;6.074;2023-05-10T16:28:09;13.07;;;9.65;;
17618;SDS011;8928;51.678;6.074;2023-05-10T16:30:56;14.20;;;9.97;;
17618;SDS011;8928;51.678;6.074;2023-05-10T16:33:43;13.65;;;9.27;;
17618;SDS011;8928;51.678;6.074;2023-05-10T16:36:30;14.77;;;10.10;;